Time;durP1;ratioP1;P1;durP2;ratioP2;P2;SDS_P1;SDS_P2;PMS_P1;PMS_P2;Temp;Humidity;BMP_temperature;BMP_pressure;BME280_temperature;BME280_humidity;BME280_pressure;Samples;Min_cycle;Max_cycle;Signal;HPM_P1;HPM_P2
2023/01/11 00:00:48;;;;;;;0.70;0.70;;;4.00;58.30;;;;;;6152329;23;20378;-75
2023/01/11 00:03:16;;;;;;;0.73;0.70;;;3.60;60.00;;;;;;6151325;23;20382;-75
2023/01/11 00:05:44;;;;;;;0.80;0.80;;;3.50;60.10;;;;;;6151285;23;20658;-75
2023/01/11 00:08:11;;;;;;;0.85;0.85;;;3.30;61.10;;;;;;6150781;23;20411;-75
2023/01/11 00:10:39;;;;;;;0.95;0.95;;;3.20;60.80;;;;;;6151468;23;20852;-75
2023/01/11 00:13:06;;;;;;;0.82;0.82;;;3.10;61.70;;;;;;6152130;23;20437;-76
2023/01/11 00:15:35;;;;;;;0.80;0.80;;;3.10;61.80;;;;;;6152999;23;20413;-75
2023/01/11 00:18:02;;;;;;;0.80;0.80;;;3.10;61.10;;;;;;6152066;23;20420;-75
2023/01/11 00:20:29;;;;;;;0.80;0.80;;;3.10;60.60;;;;;;6150329;23;20717;-75
2023/01/11 00:22:56;;;;;;;0.70;0.70;;;3.20;59.60;;;;;;6150713;23;20389;-76
2023/01/11 00:25:23;;;;;;;0.98;0.98;;;3.20;60.10;;;;;;6150228;23;20378;-75
2023/01/11 00:27:50;;;;;;;0.60;0.60;;;3.30;60.30;;;;;;6151146;23;20846;-76
2023/01/11 00:30:17;;;;;;;0.60;0.60;;;3.30;59.40;;;;;;6152262;23;20397;-75
2023/01/11 00:32:44;;;;;;;0.55;0.55;;;3.50;56.90;;;;;;6153148;23;20413;-75
2023/01/11 00:35:11;;;;;;;0.60;0.60;;;3.70;55.30;;;;;;6152023;23;20378;-75
2023/01/11 00:37:38;;;;;;;0.70;0.70;;;4.00;54.10;;;;;;6151636;23;20366;-75
2023/01/11 00:40:06;;;;;;;0.65;0.65;;;4.00;57.10;;;;;;6150932;23;20838;-76
2023/01/11 00:48:05;;;;;;;0.90;0.90;;;3.20;64.00;;;;;;6152614;23;20905;-75
2023/01/11 00:50:34;;;;;;;0.70;0.70;;;3.00;64.10;;;;;;6149584;23;20449;-75
2023/01/11 00:53:01;;;;;;;1.10;0.90;;;2.90;64.60;;;;;;6152279;23;20386;-74
2023/01/11 00:55:30;;;;;;;0.80;0.80;;;2.80;67.20;;;;;;6150432;23;20382;-75
2023/01/11 00:57:58;;;;;;;0.73;0.73;;;2.70;68.20;;;;;;6152626;23;20482;-75
2023/01/11 01:00:26;;;;;;;0.75;0.75;;;2.60;68.10;;;;;;6151976;23;20698;-75
2023/01/11 01:02:53;;;;;;;0.80;0.80;;;2.50;69.10;;;;;;6150767;23;20452;-74
2023/01/11 01:05:20;;;;;;;0.75;0.75;;;2.50;68.70;;;;;;6150003;23;20428;-74
2023/01/11 01:07:47;;;;;;;0.90;0.90;;;2.50;68.10;;;;;;6151043;23;20373;-74
2023/01/11 01:10:16;;;;;;;0.80;0.80;;;2.40;68.60;;;;;;6150450;23;20370;-74
2023/01/11 01:15:29;;;;;;;0.70;0.70;;;2.30;69.50;;;;;;6151637;23;20441;-74
2023/01/11 01:17:56;;;;;;;0.90;0.90;;;2.30;67.60;;;;;;6150584;23;20409;-75
2023/01/11 01:20:23;;;;;;;0.80;0.80;;;2.30;69.10;;;;;;6149985;23;20370;-74
2023/01/11 01:22:50;;;;;;;0.80;0.80;;;2.20;71.20;;;;;;6150550;23;20451;-74
2023/01/11 01:25:17;;;;;;;0.80;0.80;;;2.20;70.50;;;;;;6151959;23;20374;-75
2023/01/11 01:27:44;;;;;;;0.90;0.90;;;2.20;72.10;;;;;;6150591;23;20381;-74
2023/01/11 01:30:12;;;;;;;0.80;0.80;;;2.10;72.50;;;;;;6152091;23;20409;-74
2023/01/11 01:32:39;;;;;;;0.95;0.95;;;2.20;72.10;;;;;;6151860;23;20427;-75
2023/01/11 01:35:06;;;;;;;0.97;0.97;;;2.20;71.70;;;;;;6152367;23;20750;-74
2023/01/11 01:37:33;;;;;;;0.80;0.80;;;2.30;71.00;;;;;;6149449;23;20681;-75
2023/01/11 01:40:00;;;;;;;0.80;0.80;;;2.30;70.10;;;;;;6150603;23;20374;-74
2023/01/11 01:42:27;;;;;;;1.00;1.00;;;2.30;70.20;;;;;;6151225;23;20382;-74
2023/01/11 01:45:06;;;;;;;1.10;1.10;;;2.20;71.20;;;;;;6150851;23;20389;-74
2023/01/11 01:47:46;;;;;;;1.00;1.00;;;2.10;72.10;;;;;;6149890;23;20448;-74
2023/01/11 01:50:26;;;;;;;1.40;1.10;;;2.10;71.40;;;;;;6150584;23;20751;-74
2023/01/11 01:52:57;;;;;;;1.10;1.10;;;2.10;71.50;;;;;;6151545;23;20436;-74
2023/01/11 01:55:29;;;;;;;1.50;1.40;;;2.00;72.00;;;;;;6150198;23;20474;-74
2023/01/11 01:57:58;;;;;;;1.17;1.17;;;1.80;74.00;;;;;;6151110;23;20524;-74
2023/01/11 02:00:24;;;;;;;0.95;0.90;;;1.70;75.20;;;;;;6149172;23;20503;-74
